sensor_id;sensor_type;location;lat;lon;timestamp;temperature;humidity
35593;DHT22;64447;52.140;5.602;2023-03-01T00:04:01;1.60;81.80
35593;DHT22;64447;52.140;5.602;2023-03-01T00:06:27;2.00;82.10
35593;DHT22;64447;52.140;5.602;2023-03-01T00:08:53;1.60;82.00
35593;DHT22;64447;52.140;5.602;2023-03-01T00:11:24;1.60;81.80
35593;DHT22;64447;52.140;5.602;2023-03-01T00:13:54;1.60;81.40
35593;DHT22;64447;52.140;5.602;2023-03-01T00:16:22;1.60;81.80
35593;DHT22;64447;52.140;5.602;2023-03-01T00:18:48;1.90;82.20
35593;DHT22;64447;52.140;5.602;2023-03-01T00:21:14;1.50;81.90
35593;DHT22;64447;52.140;5.602;2023-03-01T00:23:40;1.50;82.20
35593;DHT22;64447;52.140;5.602;2023-03-01T00:26:08;1.50;82.30
35593;DHT22;64447;52.140;5.602;2023-03-01T00:35:00;1.40;81.50
35593;DHT22;64447;52.140;5.602;2023-03-01T00:37:25;1.30;83.20
35593;DHT22;64447;52.140;5.602;2023-03-01T00:39:51;1.30;81.30
35593;DHT22;64447;52.140;5.602;2023-03-01T00:42:16;1.20;81.10
35593;DHT22;64447;52.140;5.602;2023-03-01T00:44:42;1.20;82.10
35593;DHT22;64447;52.140;5.602;2023-03-01T00:47:08;1.20;81.80
35593;DHT22;64447;52.140;5.602;2023-03-01T00:49:34;1.20;81.70
35593;DHT22;64447;52.140;5.602;2023-03-01T00:51:59;1.20;82.30
35593;DHT22;64447;52.140;5.602;2023-03-01T00:54:25;1.20;82.50
35593;DHT22;64447;52.140;5.602;2023-03-01T00:56:50;1.20;82.80
35593;DHT22;64447;52.140;5.602;2023-03-01T00:59:16;1.20;83.40
35593;DHT22;64447;52.140;5.602;2023-03-01T01:01:42;1.10;83.50
35593;DHT22;64447;52.140;5.602;2023-03-01T01:04:10;1.10;83.40
35593;DHT22;64447;52.140;5.602;2023-03-01T01:06:42;1.10;82.70
35593;DHT22;64447;52.140;5.602;2023-03-01T01:09:09;1.10;82.40
35593;DHT22;64447;52.140;5.602;2023-03-01T01:11:43;1.00;82.50
35593;DHT22;64447;52.140;5.602;2023-03-01T01:34:50;0.80;83.60
35593;DHT22;64447;52.140;5.602;2023-03-01T01:37:16;0.70;83.60
35593;DHT22;64447;52.140;5.602;2023-03-01T01:39:41;0.60;83.50
35593;DHT22;64447;52.140;5.602;2023-03-01T01:42:16;0.60;83.50
35593;DHT22;64447;52.140;5.602;2023-03-01T01:44:42;0.60;84.50
35593;DHT22;64447;52.140;5.602;2023-03-01T01:47:16;0.60;84.40
35593;DHT22;64447;52.140;5.602;2023-03-01T01:49:54;0.60;84.70
35593;DHT22;64447;52.140;5.602;2023-03-01T01:52:33;0.50;84.60
35593;DHT22;64447;52.140;5.602;2023-03-01T01:55:10;0.50;84.70
35593;DHT22;64447;52.140;5.602;2023-03-01T01:57:47;0.50;84.70
35593;DHT22;64447;52.140;5.602;2023-03-01T02:00:24;0.50;84.70
35593;DHT22;64447;52.140;5.602;2023-03-01T02:02:55;0.50;85.00
35593;DHT22;64447;52.140;5.602;2023-03-01T02:05:33;0.50;85.30
35593;DHT22;64447;52.140;5.602;2023-03-01T02:08:00;0.50;84.90
35593;DHT22;64447;52.140;5.602;2023-03-01T02:10:27;0.70;84.80
35593;DHT22;64447;52.140;5.602;2023-03-01T02:12:53;0.50;84.80
35593;DHT22;64447;52.140;5.602;2023-03-01T02:15:19;0.50;85.10
35593;DHT22;64447;52.140;5.602;2023-03-01T02:17:45;0.40;84.80
35593;DHT22;64447;52.140;5.602;2023-03-01T02:20:25;0.40;85.00
35593;DHT22;64447;52.140;5.602;2023-03-01T02:22:54;0.40;85.00
35593;DHT22;64447;52.140;5.602;2023-03-01T02:30:38;0.50;85.50
35593;DHT22;64447;52.140;5.602;2023-03-01T02:33:25;0.50;85.90
35593;DHT22;64447;52.140;5.602;2023-03-01T04:29:28;-0.30;88.60
35593;DHT22;64447;52.140;5.602;2023-03-01T04:35:16;-0.30;89.00
35593;DHT22;64447;52.140;5.602;2023-03-01T04:37:42;-0.30;88.30
35593;DHT22;64447;52.140;5.602;2023-03-01T04:40:08;-0.30;88.60
35593;DHT22;64447;52.140;5.602;2023-03-01T04:42:42;-0.40;88.60
35593;DHT22;64447;52.140;5.602;2023-03-01T04:45:08;-0.40;88.40
35593;DHT22;64447;52.140;5.602;2023-03-01T04:47:47;-0.40;88.60
35593;DHT22;64447;52.140;5.602;2023-03-01T04:50:15;-0.40;89.20
35593;DHT22;64447;52.140;5.602;2023-03-01T04:52:41;-0.50;89.40
35593;DHT22;64447;52.140;5.602;2023-03-01T04:55:07;-0.50;89.70
35593;DHT22;64447;52.140;5.602;2023-03-01T04:57:33;-0.60;89.50
35593;DHT22;64447;52.140;5.602;2023-03-01T04:59:59;-0.50;89.80
35593;DHT22;64447;52.140;5.602;2023-03-01T05:02:25;-0.60;89.80
35593;DHT22;64447;52.140;5.602;2023-03-01T05:04:50;-0.60;89.80
35593;DHT22;64447;52.140;5.602;2023-03-01T05:07:16;-0.60;90.00
35593;DHT22;64447;52.140;5.602;2023-03-01T05:09:45;-0.60;89.80
35593;DHT22;64447;52.140;5.602;2023-03-01T05:12:12;-0.60;89.90
35593;DHT22;64447;52.140;5.602;2023-03-01T05:14:37;-0.60;89.90
35593;DHT22;64447;52.140;5.602;2023-03-01T05:20:27;-0.60;90.20
35593;DHT22;64447;52.140;5.602;2023-03-01T05:22:57;-0.60;90.10
35593;DHT22;64447;52.140;5.602;2023-03-01T05:25:24;-0.60;90.10
35593;DHT22;64447;52.140;5.602;2023-03-01T05:27:50;-0.70;90.10
35593;DHT22;64447;52.140;5.602;2023-03-01T05:30:16;-0.80;90.30
35593;DHT22;64447;52.140;5.602;2023-03-01T05:32:45;-0.80;90.40
35593;DHT22;64447;52.140;5.602;2023-03-01T05:35:12;0.60;90.80
35593;DHT22;64447;52.140;5.602;2023-03-01T05:37:40;-0.70;90.40
35593;DHT22;64447;52.140;5.602;2023-03-01T05:40:07;-0.80;90.30
35593;DHT22;64447;52.140;5.602;2023-03-01T05:42:44;-0.70;90.50
35593;DHT22;64447;52.140;5.602;2023-03-01T05:45:10;-0.70;90.50
35593;DHT22;64447;52.140;5.602;2023-03-01T05:47:38;-0.70;90.40
35593;DHT22;64447;52.140;5.602;2023-03-01T05:50:04;-0.70;90.40
35593;DHT22;64447;52.140;5.602;2023-03-01T05:52:29;-0.70;90.30
35593;DHT22;64447;52.140;5.602;2023-03-01T05:54:55;-0.70;90.40
35593;DHT22;64447;52.140;5.602;2023-03-01T05:57:20;-0.80;90.30
35593;DHT22;64447;52.140;5.602;2023-03-01T05:59:46;-0.80;90.30
35593;DHT22;64447;52.140;5.602;2023-03-01T06:05:34;-0.80;90.40
35593;DHT22;64447;52.140;5.602;2023-03-01T06:08:00;-0.70;90.50
35593;DHT22;64447;52.140;5.602;2023-03-01T06:10:26;-0.80;90.50
35593;DHT22;64447;52.140;5.602;2023-03-01T06:12:53;-0.80;90.50
35593;DHT22;64447;52.140;5.602;2023-03-01T06:15:18;-0.80;90.40
35593;DHT22;64447;52.140;5.602;2023-03-01T06:17:45;-0.80;90.40
35593;DHT22;64447;52.140;5.602;2023-03-01T06:20:17;-0.80;90.40
35593;DHT22;64447;52.140;5.602;2023-03-01T06:22:43;-0.80;90.40
35593;DHT22;64447;52.140;5.602;2023-03-01T06:25:10;-0.80;90.50
35593;DHT22;64447;52.140;5.602;2023-03-01T06:27:35;-0.70;90.40
35593;DHT22;64447;52.140;5.602;2023-03-01T06:30:02;-0.70;90.50
35593;DHT22;64447;52.140;5.602;2023-03-01T06:35:51;-0.80;90.60
35593;DHT22;64447;52.140;5.602;2023-03-01T06:38:17;-0.80;90.40
35593;DHT22;64447;52.140;5.602;2023-03-01T06:40:44;0.00;90.70
35593;DHT22;64447;52.140;5.602;2023-03-01T06:43:10;-0.80;90.50
35593;DHT22;64447;52.140;5.602;2023-03-01T06:45:37;-0.80;90.50
35593;DHT22;64447;52.140;5.602;2023-03-01T06:48:06;-0.90;90.50
35593;DHT22;64447;52.140;5.602;2023-03-01T06:50:33;-0.90;90.60
35593;DHT22;64447;52.140;5.602;2023-03-01T06:52:59;-0.90;90.60
35593;DHT22;64447;52.140;5.602;2023-03-01T06:55:25;-0.90;90.60
35593;DHT22;64447;52.140;5.602;2023-03-01T06:57:55;-0.90;90.60
35593;DHT22;64447;52.140;5.602;2023-03-01T07:00:21;-1.00;90.90
35593;DHT22;64447;52.140;5.602;2023-03-01T07:02:47;-0.90;91.20
35593;DHT22;64447;52.140;5.602;2023-03-01T07:05:13;-0.90;91.30
35593;DHT22;64447;52.140;5.602;2023-03-01T07:07:38;-0.90;91.50
35593;DHT22;64447;52.140;5.602;2023-03-01T07:10:04;-0.80;91.40
35593;DHT22;64447;52.140;5.602;2023-03-01T07:12:30;-0.80;91.50
35593;DHT22;64447;52.140;5.602;2023-03-01T07:14:56;-0.70;91.60
35593;DHT22;64447;52.140;5.602;2023-03-01T07:20:43;-0.60;91.60
35593;DHT22;64447;52.140;5.602;2023-03-01T07:23:08;-0.50;91.70
35593;DHT22;64447;52.140;5.602;2023-03-01T07:25:34;-0.50;91.60
35593;DHT22;64447;52.140;5.602;2023-03-01T07:28:00;-0.50;91.70
35593;DHT22;64447;52.140;5.602;2023-03-01T07:30:25;-0.90;92.20
35593;DHT22;64447;52.140;5.602;2023-03-01T07:36:32;-1.30;93.50
35593;DHT22;64447;52.140;5.602;2023-03-01T07:41:24;-0.80;93.60
35593;DHT22;64447;52.140;5.602;2023-03-01T07:43:50;-0.50;93.50
35593;DHT22;64447;52.140;5.602;2023-03-01T07:46:15;-0.80;93.40
35593;DHT22;64447;52.140;5.602;2023-03-01T07:48:41;-0.70;93.50
35593;DHT22;64447;52.140;5.602;2023-03-01T07:51:07;-0.60;93.20
35593;DHT22;64447;52.140;5.602;2023-03-01T07:53:33;0.50;93.20
35593;DHT22;64447;52.140;5.602;2023-03-01T07:56:08;-0.40;92.90
35593;DHT22;64447;52.140;5.602;2023-03-01T07:58:35;-0.30;93.00
35593;DHT22;64447;52.140;5.602;2023-03-01T08:01:02;-0.20;92.60
35593;DHT22;64447;52.140;5.602;2023-03-01T08:03:28;-0.20;93.00
35593;DHT22;64447;52.140;5.602;2023-03-01T08:05:54;-0.20;92.90
35593;DHT22;64447;52.140;5.602;2023-03-01T08:08:19;-0.20;93.40
35593;DHT22;64447;52.140;5.602;2023-03-01T08:10:45;-0.30;93.60
35593;DHT22;64447;52.140;5.602;2023-03-01T08:13:11;1.10;94.20
35593;DHT22;64447;52.140;5.602;2023-03-01T08:15:36;-0.20;93.90
35593;DHT22;64447;52.140;5.602;2023-03-01T08:21:23;-0.10;93.70
35593;DHT22;64447;52.140;5.602;2023-03-01T08:23:49;0.00;93.80
35593;DHT22;64447;52.140;5.602;2023-03-01T08:26:17;0.10;94.00
35593;DHT22;64447;52.140;5.602;2023-03-01T08:28:44;0.20;93.70
35593;DHT22;64447;52.140;5.602;2023-03-01T08:33:43;0.40;93.80
35593;DHT22;64447;52.140;5.602;2023-03-01T08:36:09;0.60;93.20
35593;DHT22;64447;52.140;5.602;2023-03-01T08:38:35;0.80;93.10
35593;DHT22;64447;52.140;5.602;2023-03-01T08:41:04;0.80;93.30
35593;DHT22;64447;52.140;5.602;2023-03-01T08:43:30;0.70;92.80
35593;DHT22;64447;52.140;5.602;2023-03-01T08:45:55;0.70;93.30
35593;DHT22;64447;52.140;5.602;2023-03-01T08:48:21;0.70;93.60
35593;DHT22;64447;52.140;5.602;2023-03-01T08:50:47;0.80;93.40
35593;DHT22;64447;52.140;5.602;2023-03-01T08:53:12;0.80;92.90
35593;DHT22;64447;52.140;5.602;2023-03-01T08:55:38;0.80;92.70
35593;DHT22;64447;52.140;5.602;2023-03-01T08:58:03;0.90;93.10
35593;DHT22;64447;52.140;5.602;2023-03-01T09:00:29;1.10;93.10
35593;DHT22;64447;52.140;5.602;2023-03-01T09:06:17;1.30;92.40
35593;DHT22;64447;52.140;5.602;2023-03-01T09:08:44;1.30;92.60
35593;DHT22;64447;52.140;5.602;2023-03-01T09:11:12;1.40;92.50
35593;DHT22;64447;52.140;5.602;2023-03-01T09:13:38;2.40;92.00
35593;DHT22;64447;52.140;5.602;2023-03-01T09:21:27;2.00;98.60
35593;DHT22;64447;52.140;5.602;2023-03-01T09:23:53;2.00;99.80
35593;DHT22;64447;52.140;5.602;2023-03-01T09:26:21;2.00;91.20
35593;DHT22;64447;52.140;5.602;2023-03-01T09:28:49;2.50;99.90
35593;DHT22;64447;52.140;5.602;2023-03-01T09:31:16;2.30;99.90
35593;DHT22;64447;52.140;5.602;2023-03-01T09:33:45;2.70;96.40
35593;DHT22;64447;52.140;5.602;2023-03-01T09:36:16;2.90;95.10
35593;DHT22;64447;52.140;5.602;2023-03-01T09:38:42;2.90;95.20
35593;DHT22;64447;52.140;5.602;2023-03-01T09:50:40;2.80;86.30
35593;DHT22;64447;52.140;5.602;2023-03-01T09:53:11;3.00;84.70
35593;DHT22;64447;52.140;5.602;2023-03-01T09:55:39;3.10;84.30
35593;DHT22;64447;52.140;5.602;2023-03-01T10:05:03;3.20;78.00
35593;DHT22;64447;52.140;5.602;2023-03-01T10:07:44;3.30;77.70
35593;DHT22;64447;52.140;5.602;2023-03-01T10:12:50;3.50;76.60
35593;DHT22;64447;52.140;5.602;2023-03-01T10:15:22;3.50;75.20
35593;DHT22;64447;52.140;5.602;2023-03-01T10:21:15;3.60;75.70
35593;DHT22;64447;52.140;5.602;2023-03-01T10:23:42;3.70;76.00
35593;DHT22;64447;52.140;5.602;2023-03-01T10:29:04;3.90;72.80
35593;DHT22;64447;52.140;5.602;2023-03-01T10:31:44;4.00;73.00
35593;DHT22;64447;52.140;5.602;2023-03-01T10:34:19;4.00;73.60
35593;DHT22;64447;52.140;5.602;2023-03-01T10:36:50;4.00;73.50
35593;DHT22;64447;52.140;5.602;2023-03-01T10:39:19;4.10;71.60
35593;DHT22;64447;52.140;5.602;2023-03-01T10:41:54;4.10;69.80
35593;DHT22;64447;52.140;5.602;2023-03-01T10:47:26;4.10;67.40
35593;DHT22;64447;52.140;5.602;2023-03-01T10:50:05;4.20;66.70
35593;DHT22;64447;52.140;5.602;2023-03-01T10:52:33;4.30;65.90
35593;DHT22;64447;52.140;5.602;2023-03-01T10:55:02;4.30;66.10
35593;DHT22;64447;52.140;5.602;2023-03-01T10:57:39;4.30;65.40
35593;DHT22;64447;52.140;5.602;2023-03-01T11:00:24;4.40;66.00
35593;DHT22;64447;52.140;5.602;2023-03-01T11:03:12;4.40;63.60
35593;DHT22;64447;52.140;5.602;2023-03-01T11:13:35;4.50;65.20
35593;DHT22;64447;52.140;5.602;2023-03-01T11:16:10;4.60;64.90
35593;DHT22;64447;52.140;5.602;2023-03-01T11:18:37;4.60;63.40
35593;DHT22;64447;52.140;5.602;2023-03-01T11:21:03;4.60;64.80
35593;DHT22;64447;52.140;5.602;2023-03-01T11:23:30;4.60;64.00
35593;DHT22;64447;52.140;5.602;2023-03-01T11:26:00;4.60;63.70
35593;DHT22;64447;52.140;5.602;2023-03-01T11:28:28;4.80;63.90
35593;DHT22;64447;52.140;5.602;2023-03-01T11:31:00;4.80;61.50
35593;DHT22;64447;52.140;5.602;2023-03-01T11:33:51;4.90;61.90
35593;DHT22;64447;52.140;5.602;2023-03-01T11:36:32;4.90;62.40
35593;DHT22;64447;52.140;5.602;2023-03-01T11:39:05;4.90;62.50
35593;DHT22;64447;52.140;5.602;2023-03-01T11:41:39;4.70;63.20
35593;DHT22;64447;52.140;5.602;2023-03-01T11:53:00;5.10;60.10
35593;DHT22;64447;52.140;5.602;2023-03-01T12:07:20;5.20;59.40
35593;DHT22;64447;52.140;5.602;2023-03-01T12:10:23;5.40;58.80
35593;DHT22;64447;52.140;5.602;2023-03-01T12:13:03;5.40;59.20
35593;DHT22;64447;52.140;5.602;2023-03-01T12:15:46;5.40;58.20
35593;DHT22;64447;52.140;5.602;2023-03-01T12:33:00;5.60;57.90
35593;DHT22;64447;52.140;5.602;2023-03-01T12:38:32;5.70;57.80
35593;DHT22;64447;52.140;5.602;2023-03-01T12:44:01;5.70;56.90
35593;DHT22;64447;52.140;5.602;2023-03-01T12:46:42;5.60;56.20
35593;DHT22;64447;52.140;5.602;2023-03-01T12:49:15;5.70;56.30
35593;DHT22;64447;52.140;5.602;2023-03-01T12:51:48;5.80;56.50
35593;DHT22;64447;52.140;5.602;2023-03-01T12:54:23;5.90;57.40
35593;DHT22;64447;52.140;5.602;2023-03-01T12:56:51;6.00;56.50
35593;DHT22;64447;52.140;5.602;2023-03-01T12:59:42;6.00;55.10
35593;DHT22;64447;52.140;5.602;2023-03-01T13:09:01;6.00;54.80
35593;DHT22;64447;52.140;5.602;2023-03-01T13:11:30;6.00;55.60
35593;DHT22;64447;52.140;5.602;2023-03-01T13:16:47;6.10;54.70
35593;DHT22;64447;52.140;5.602;2023-03-01T13:22:35;6.10;54.90
35593;DHT22;64447;52.140;5.602;2023-03-01T13:25:11;6.10;55.10
35593;DHT22;64447;52.140;5.602;2023-03-01T13:27:38;6.10;55.70
35593;DHT22;64447;52.140;5.602;2023-03-01T13:35:54;6.10;53.50
35593;DHT22;64447;52.140;5.602;2023-03-01T13:38:45;6.70;53.90
35593;DHT22;64447;52.140;5.602;2023-03-01T13:41:12;6.30;54.80
35593;DHT22;64447;52.140;5.602;2023-03-01T13:43:41;6.30;55.10
35593;DHT22;64447;52.140;5.602;2023-03-01T13:46:15;6.40;54.80
35593;DHT22;64447;52.140;5.602;2023-03-01T13:48:43;6.30;54.50
35593;DHT22;64447;52.140;5.602;2023-03-01T13:51:11;6.70;52.60
35593;DHT22;64447;52.140;5.602;2023-03-01T13:53:44;6.30;51.60
35593;DHT22;64447;52.140;5.602;2023-03-01T13:58:56;6.40;52.60
35593;DHT22;64447;52.140;5.602;2023-03-01T14:01:29;6.50;52.90
35593;DHT22;64447;52.140;5.602;2023-03-01T14:03:58;6.50;53.20
35593;DHT22;64447;52.140;5.602;2023-03-01T14:06:29;6.60;53.60
35593;DHT22;64447;52.140;5.602;2023-03-01T14:09:14;6.60;52.60
35593;DHT22;64447;52.140;5.602;2023-03-01T14:21:07;6.50;51.90
35593;DHT22;64447;52.140;5.602;2023-03-01T14:23:33;6.50;53.50
35593;DHT22;64447;52.140;5.602;2023-03-01T14:26:01;6.60;53.60
35593;DHT22;64447;52.140;5.602;2023-03-01T14:28:31;6.70;54.10
35593;DHT22;64447;52.140;5.602;2023-03-01T14:31:03;6.50;53.20
35593;DHT22;64447;52.140;5.602;2023-03-01T14:39:50;6.50;53.70
35593;DHT22;64447;52.140;5.602;2023-03-01T14:42:16;6.50;54.50
35593;DHT22;64447;52.140;5.602;2023-03-01T14:44:47;6.60;55.10
35593;DHT22;64447;52.140;5.602;2023-03-01T14:47:16;6.50;54.50
35593;DHT22;64447;52.140;5.602;2023-03-01T14:53:42;6.60;54.20
35593;DHT22;64447;52.140;5.602;2023-03-01T14:56:14;6.90;54.90
35593;DHT22;64447;52.140;5.602;2023-03-01T14:58:40;6.80;55.60
35593;DHT22;64447;52.140;5.602;2023-03-01T15:01:06;6.70;54.90
35593;DHT22;64447;52.140;5.602;2023-03-01T15:03:45;6.70;54.90
35593;DHT22;64447;52.140;5.602;2023-03-01T15:06:15;6.70;55.10
35593;DHT22;64447;52.140;5.602;2023-03-01T15:08:44;6.70;54.90
35593;DHT22;64447;52.140;5.602;2023-03-01T15:13:40;6.60;54.70
35593;DHT22;64447;52.140;5.602;2023-03-01T15:16:14;6.70;54.70
35593;DHT22;64447;52.140;5.602;2023-03-01T15:18:48;6.70;54.60
35593;DHT22;64447;52.140;5.602;2023-03-01T15:21:26;6.70;54.20
35593;DHT22;64447;52.140;5.602;2023-03-01T15:26:35;7.00;53.70
35593;DHT22;64447;52.140;5.602;2023-03-01T15:29:02;7.60;54.80
35593;DHT22;64447;52.140;5.602;2023-03-01T15:31:32;6.70;54.30
35593;DHT22;64447;52.140;5.602;2023-03-01T15:34:25;6.60;55.00
35593;DHT22;64447;52.140;5.602;2023-03-01T15:36:53;6.80;55.00
35593;DHT22;64447;52.140;5.602;2023-03-01T15:39:40;6.70;56.00
35593;DHT22;64447;52.140;5.602;2023-03-01T15:42:12;6.80;56.30
35593;DHT22;64447;52.140;5.602;2023-03-01T15:44:40;6.60;56.70
35593;DHT22;64447;52.140;5.602;2023-03-01T15:47:30;6.60;56.20
35593;DHT22;64447;52.140;5.602;2023-03-01T15:49:58;6.70;55.80
35593;DHT22;64447;52.140;5.602;2023-03-01T15:52:42;6.60;55.60
35593;DHT22;64447;52.140;5.602;2023-03-01T15:55:18;6.60;55.60
35593;DHT22;64447;52.140;5.602;2023-03-01T15:57:44;6.50;56.20
35593;DHT22;64447;52.140;5.602;2023-03-01T16:00:12;6.50;56.40
35593;DHT22;64447;52.140;5.602;2023-03-01T16:02:39;6.50;55.90
35593;DHT22;64447;52.140;5.602;2023-03-01T16:05:11;6.50;55.90
35593;DHT22;64447;52.140;5.602;2023-03-01T16:07:40;6.50;55.50
35593;DHT22;64447;52.140;5.602;2023-03-01T16:10:06;6.50;55.60
35593;DHT22;64447;52.140;5.602;2023-03-01T16:12:32;6.50;56.00
35593;DHT22;64447;52.140;5.602;2023-03-01T16:14:57;6.40;56.70
35593;DHT22;64447;52.140;5.602;2023-03-01T16:17:23;6.40;57.20
35593;DHT22;64447;52.140;5.602;2023-03-01T16:19:49;6.50;56.70
35593;DHT22;64447;52.140;5.602;2023-03-01T16:22:14;6.40;56.90
35593;DHT22;64447;52.140;5.602;2023-03-01T16:24:40;6.40;57.10
35593;DHT22;64447;52.140;5.602;2023-03-01T16:27:06;6.30;57.40
35593;DHT22;64447;52.140;5.602;2023-03-01T16:29:32;6.40;58.20
35593;DHT22;64447;52.140;5.602;2023-03-01T16:32:01;6.30;58.70
35593;DHT22;64447;52.140;5.602;2023-03-01T16:34:26;6.30;59.30
35593;DHT22;64447;52.140;5.602;2023-03-01T16:36:52;6.20;59.90
35593;DHT22;64447;52.140;5.602;2023-03-01T16:39:18;6.10;60.10
35593;DHT22;64447;52.140;5.602;2023-03-01T16:41:43;6.60;60.60
35593;DHT22;64447;52.140;5.602;2023-03-01T16:44:09;6.30;60.60
35593;DHT22;64447;52.140;5.602;2023-03-01T16:46:35;6.30;60.80
35593;DHT22;64447;52.140;5.602;2023-03-01T16:49:00;6.30;60.70
35593;DHT22;64447;52.140;5.602;2023-03-01T16:51:26;6.70;61.20
35593;DHT22;64447;52.140;5.602;2023-03-01T16:53:52;6.30;60.40
35593;DHT22;64447;52.140;5.602;2023-03-01T16:56:18;6.20;60.60
35593;DHT22;64447;52.140;5.602;2023-03-01T16:58:44;6.10;60.80
35593;DHT22;64447;52.140;5.602;2023-03-01T17:01:15;6.10;60.60
35593;DHT22;64447;52.140;5.602;2023-03-01T17:03:42;6.10;60.60
35593;DHT22;64447;52.140;5.602;2023-03-01T17:06:11;6.00;60.80
35593;DHT22;64447;52.140;5.602;2023-03-01T17:08:37;5.90;60.90
35593;DHT22;64447;52.140;5.602;2023-03-01T17:11:17;6.00;61.10
35593;DHT22;64447;52.140;5.602;2023-03-01T17:13:43;6.10;60.70
35593;DHT22;64447;52.140;5.602;2023-03-01T17:16:12;6.10;61.10
35593;DHT22;64447;52.140;5.602;2023-03-01T17:18:39;6.10;61.10
35593;DHT22;64447;52.140;5.602;2023-03-01T17:21:06;6.10;60.30
35593;DHT22;64447;52.140;5.602;2023-03-01T17:23:33;6.10;60.40
35593;DHT22;64447;52.140;5.602;2023-03-01T17:25:59;6.10;60.20
35593;DHT22;64447;52.140;5.602;2023-03-01T17:28:27;6.00;60.20
35593;DHT22;64447;52.140;5.602;2023-03-01T17:30:54;6.10;60.30
35593;DHT22;64447;52.140;5.602;2023-03-01T17:33:20;6.40;60.00
35593;DHT22;64447;52.140;5.602;2023-03-01T17:35:46;6.60;59.30
35593;DHT22;64447;52.140;5.602;2023-03-01T17:38:13;6.70;58.80
35593;DHT22;64447;52.140;5.602;2023-03-01T17:40:42;6.70;58.20
35593;DHT22;64447;52.140;5.602;2023-03-01T17:43:11;7.70;58.50
35593;DHT22;64447;52.140;5.602;2023-03-01T17:45:38;6.50;59.00
35593;DHT22;64447;52.140;5.602;2023-03-01T17:48:05;6.50;58.30
35593;DHT22;64447;52.140;5.602;2023-03-01T17:53:52;6.50;58.60
35593;DHT22;64447;52.140;5.602;2023-03-01T17:56:18;6.40;58.70
35593;DHT22;64447;52.140;5.602;2023-03-01T17:58:43;6.40;59.10
35593;DHT22;64447;52.140;5.602;2023-03-01T18:01:13;6.30;59.00
35593;DHT22;64447;52.140;5.602;2023-03-01T18:03:40;6.80;59.50
35593;DHT22;64447;52.140;5.602;2023-03-01T18:06:26;6.10;59.40
35593;DHT22;64447;52.140;5.602;2023-03-01T18:08:52;6.00;60.00
35593;DHT22;64447;52.140;5.602;2023-03-01T18:11:20;5.60;60.00
35593;DHT22;64447;52.140;5.602;2023-03-01T18:13:47;6.50;60.90
35593;DHT22;64447;52.140;5.602;2023-03-01T18:16:15;5.90;60.70
35593;DHT22;64447;52.140;5.602;2023-03-01T18:18:42;5.90;60.50
35593;DHT22;64447;52.140;5.602;2023-03-01T18:21:10;6.10;60.40
35593;DHT22;64447;52.140;5.602;2023-03-01T18:23:35;6.10;60.20
35593;DHT22;64447;52.140;5.602;2023-03-01T18:26:05;6.10;60.00
35593;DHT22;64447;52.140;5.602;2023-03-01T18:28:31;6.00;60.00
35593;DHT22;64447;52.140;5.602;2023-03-01T18:30:58;5.70;61.20
35593;DHT22;64447;52.140;5.602;2023-03-01T18:33:24;5.60;61.20
35593;DHT22;64447;52.140;5.602;2023-03-01T18:39:12;5.50;61.80
35593;DHT22;64447;52.140;5.602;2023-03-01T18:41:39;5.70;61.50
35593;DHT22;64447;52.140;5.602;2023-03-01T18:44:05;5.40;62.00
35593;DHT22;64447;52.140;5.602;2023-03-01T18:46:31;5.60;61.90
35593;DHT22;64447;52.140;5.602;2023-03-01T18:48:57;5.90;61.70
35593;DHT22;64447;52.140;5.602;2023-03-01T18:51:26;5.80;61.60
35593;DHT22;64447;52.140;5.602;2023-03-01T18:53:52;5.80;61.40
35593;DHT22;64447;52.140;5.602;2023-03-01T18:56:18;5.80;61.60
35593;DHT22;64447;52.140;5.602;2023-03-01T18:58:44;5.70;61.60
35593;DHT22;64447;52.140;5.602;2023-03-01T19:01:14;5.70;61.70
35593;DHT22;64447;52.140;5.602;2023-03-01T19:03:40;5.70;61.70
35593;DHT22;64447;52.140;5.602;2023-03-01T19:06:06;5.70;61.70
35593;DHT22;64447;52.140;5.602;2023-03-01T19:08:32;5.80;61.80
35593;DHT22;64447;52.140;5.602;2023-03-01T19:10:59;5.70;62.10
35593;DHT22;64447;52.140;5.602;2023-03-01T19:13:25;5.50;62.50
35593;DHT22;64447;52.140;5.602;2023-03-01T19:15:51;5.50;62.80
35593;DHT22;64447;52.140;5.602;2023-03-01T19:18:17;5.40;63.10
35593;DHT22;64447;52.140;5.602;2023-03-01T19:24:05;5.20;63.60
35593;DHT22;64447;52.140;5.602;2023-03-01T19:26:32;5.20;63.70
35593;DHT22;64447;52.140;5.602;2023-03-01T19:28:58;5.20;63.70
35593;DHT22;64447;52.140;5.602;2023-03-01T19:31:26;5.00;64.20
35593;DHT22;64447;52.140;5.602;2023-03-01T19:33:53;4.90;64.60
35593;DHT22;64447;52.140;5.602;2023-03-01T19:36:20;4.90;65.00
35593;DHT22;64447;52.140;5.602;2023-03-01T19:38:46;5.20;65.00
35593;DHT22;64447;52.140;5.602;2023-03-01T19:41:15;5.00;64.60
35593;DHT22;64447;52.140;5.602;2023-03-01T19:43:42;4.80;65.90
35593;DHT22;64447;52.140;5.602;2023-03-01T19:46:08;4.60;65.80
35593;DHT22;64447;52.140;5.602;2023-03-01T19:48:34;4.50;66.50
35593;DHT22;64447;52.140;5.602;2023-03-01T19:51:00;4.50;66.80
35593;DHT22;64447;52.140;5.602;2023-03-01T19:53:26;4.50;66.80
35593;DHT22;64447;52.140;5.602;2023-03-01T19:55:58;4.50;67.00
35593;DHT22;64447;52.140;5.602;2023-03-01T19:58:29;4.60;67.10
35593;DHT22;64447;52.140;5.602;2023-03-01T20:00:55;4.60;66.70
35593;DHT22;64447;52.140;5.602;2023-03-01T20:03:32;4.50;67.20
35593;DHT22;64447;52.140;5.602;2023-03-01T20:05:59;4.10;68.30
35593;DHT22;64447;52.140;5.602;2023-03-01T20:08:29;4.00;69.50
35593;DHT22;64447;52.140;5.602;2023-03-01T20:11:01;4.00;69.70
35593;DHT22;64447;52.140;5.602;2023-03-01T20:13:27;3.80;70.70
35593;DHT22;64447;52.140;5.602;2023-03-01T20:15:54;3.80;71.10
35593;DHT22;64447;52.140;5.602;2023-03-01T20:18:20;3.80;71.60
35593;DHT22;64447;52.140;5.602;2023-03-01T20:20:49;3.80;71.50
35593;DHT22;64447;52.140;5.602;2023-03-01T20:23:15;3.80;71.30
35593;DHT22;64447;52.140;5.602;2023-03-01T20:25:42;3.70;72.30
35593;DHT22;64447;52.140;5.602;2023-03-01T20:28:08;3.70;72.30
35593;DHT22;64447;52.140;5.602;2023-03-01T20:30:36;3.80;71.70
35593;DHT22;64447;52.140;5.602;2023-03-01T20:33:02;3.70;72.30
35593;DHT22;64447;52.140;5.602;2023-03-01T20:35:28;3.70;72.70
35593;DHT22;64447;52.140;5.602;2023-03-01T20:37:57;3.90;72.20
35593;DHT22;64447;52.140;5.602;2023-03-01T20:40:24;4.00;71.50
35593;DHT22;64447;52.140;5.602;2023-03-01T20:42:53;4.00;71.50
35593;DHT22;64447;52.140;5.602;2023-03-01T20:45:20;4.40;71.20
35593;DHT22;64447;52.140;5.602;2023-03-01T20:47:47;4.10;70.90
35593;DHT22;64447;52.140;5.602;2023-03-01T20:50:13;5.20;71.30
35593;DHT22;64447;52.140;5.602;2023-03-01T20:52:38;4.40;70.60
35593;DHT22;64447;52.140;5.602;2023-03-01T20:55:04;4.50;70.60
35593;DHT22;64447;52.140;5.602;2023-03-01T20:57:31;4.50;70.50
35593;DHT22;64447;52.140;5.602;2023-03-01T20:59:56;4.50;70.50
35593;DHT22;64447;52.140;5.602;2023-03-01T21:02:22;4.50;70.10
35593;DHT22;64447;52.140;5.602;2023-03-01T21:04:47;4.40;70.90
35593;DHT22;64447;52.140;5.602;2023-03-01T21:07:13;4.40;70.30
35593;DHT22;64447;52.140;5.602;2023-03-01T21:09:39;4.40;70.40
35593;DHT22;64447;52.140;5.602;2023-03-01T21:12:06;4.40;70.90